sensor_id;sensor_type;location;lat;lon;timestamp;P1;durP1;ratioP1;P2;durP2;ratioP2
38252;SDS011;24785;52.372;20.672;2023-06-10T00:00:59;7.93;;;3.80;;
38252;SDS011;24785;52.372;20.672;2023-06-10T00:11:21;7.82;;;3.75;;
38252;SDS011;24785;52.372;20.672;2023-06-10T00:21:22;7.97;;;3.83;;
38252;SDS011;24785;52.372;20.672;2023-06-10T00:41:28;6.68;;;4.15;;
38252;SDS011;24785;52.372;20.672;2023-06-10T00:51:30;6.85;;;3.97;;
38252;SDS011;24785;52.372;20.672;2023-06-10T01:01:31;6.18;;;3.40;;
38252;SDS011;24785;52.372;20.672;2023-06-10T01:11:53;9.10;;;4.03;;
38252;SDS011;24785;52.372;20.672;2023-06-10T01:21:57;9.48;;;4.15;;
38252;SDS011;24785;52.372;20.672;2023-06-10T01:32:06;11.95;;;4.43;;
38252;SDS011;24785;52.372;20.672;2023-06-10T01:42:12;8.77;;;4.00;;
38252;SDS011;24785;52.372;20.672;2023-06-10T01:52:13;10.80;;;4.60;;
38252;SDS011;24785;52.372;20.672;2023-06-10T02:02:14;10.43;;;4.55;;
38252;SDS011;24785;52.372;20.672;2023-06-10T02:12:15;13.13;;;4.25;;
38252;SDS011;24785;52.372;20.672;2023-06-10T02:22:16;8.95;;;3.90;;
38252;SDS011;24785;52.372;20.672;2023-06-10T02:32:17;10.32;;;4.57;;
38252;SDS011;24785;52.372;20.672;2023-06-10T02:42:18;11.93;;;4.05;;
38252;SDS011;24785;52.372;20.672;2023-06-10T02:52:19;10.73;;;4.03;;
38252;SDS011;24785;52.372;20.672;2023-06-10T03:02:20;9.55;;;3.95;;
38252;SDS011;24785;52.372;20.672;2023-06-10T03:12:22;9.70;;;4.07;;
38252;SDS011;24785;52.372;20.672;2023-06-10T03:22:22;10.88;;;4.00;;
38252;SDS011;24785;52.372;20.672;2023-06-10T03:32:23;9.43;;;3.67;;
38252;SDS011;24785;52.372;20.672;2023-06-10T03:42:24;10.18;;;3.75;;
38252;SDS011;24785;52.372;20.672;2023-06-10T03:52:25;8.35;;;3.90;;
38252;SDS011;24785;52.372;20.672;2023-06-10T04:02:26;7.60;;;3.47;;
38252;SDS011;24785;52.372;20.672;2023-06-10T04:12:27;9.23;;;3.90;;
38252;SDS011;24785;52.372;20.672;2023-06-10T04:22:28;18.67;;;4.28;;
38252;SDS011;24785;52.372;20.672;2023-06-10T04:32:29;11.18;;;4.10;;
38252;SDS011;24785;52.372;20.672;2023-06-10T04:42:30;7.80;;;3.60;;
38252;SDS011;24785;52.372;20.672;2023-06-10T04:52:31;7.88;;;3.30;;
38252;SDS011;24785;52.372;20.672;2023-06-10T05:02:31;8.48;;;3.78;;
38252;SDS011;24785;52.372;20.672;2023-06-10T05:12:32;7.45;;;3.60;;
38252;SDS011;24785;52.372;20.672;2023-06-10T05:22:33;10.68;;;3.60;;
38252;SDS011;24785;52.372;20.672;2023-06-10T05:32:35;9.18;;;4.03;;
38252;SDS011;24785;52.372;20.672;2023-06-10T05:42:35;10.43;;;4.03;;
38252;SDS011;24785;52.372;20.672;2023-06-10T05:52:36;10.52;;;3.50;;
38252;SDS011;24785;52.372;20.672;2023-06-10T06:02:37;8.05;;;3.60;;
38252;SDS011;24785;52.372;20.672;2023-06-10T06:12:38;8.40;;;3.35;;
38252;SDS011;24785;52.372;20.672;2023-06-10T06:22:39;8.27;;;3.38;;
38252;SDS011;24785;52.372;20.672;2023-06-10T06:32:40;11.05;;;3.80;;
38252;SDS011;24785;52.372;20.672;2023-06-10T06:42:41;8.32;;;3.95;;
38252;SDS011;24785;52.372;20.672;2023-06-10T06:52:42;8.45;;;3.92;;
38252;SDS011;24785;52.372;20.672;2023-06-10T07:02:42;8.00;;;4.00;;
38252;SDS011;24785;52.372;20.672;2023-06-10T07:12:43;9.38;;;4.20;;
38252;SDS011;24785;52.372;20.672;2023-06-10T07:22:44;8.80;;;4.20;;
38252;SDS011;24785;52.372;20.672;2023-06-10T07:32:45;7.47;;;3.85;;
38252;SDS011;24785;52.372;20.672;2023-06-10T07:42:46;9.77;;;3.60;;
38252;SDS011;24785;52.372;20.672;2023-06-10T07:52:47;12.52;;;4.10;;
38252;SDS011;24785;52.372;20.672;2023-06-10T08:02:47;6.63;;;3.53;;
38252;SDS011;24785;52.372;20.672;2023-06-10T08:12:48;7.60;;;3.67;;
38252;SDS011;24785;52.372;20.672;2023-06-10T08:22:49;7.03;;;4.03;;
38252;SDS011;24785;52.372;20.672;2023-06-10T08:32:50;6.32;;;3.38;;
38252;SDS011;24785;52.372;20.672;2023-06-10T08:43:17;9.53;;;3.53;;
38252;SDS011;24785;52.372;20.672;2023-06-10T08:53:28;6.70;;;3.00;;
38252;SDS011;24785;52.372;20.672;2023-06-10T09:03:32;6.75;;;3.45;;
38252;SDS011;24785;52.372;20.672;2023-06-10T09:13:35;7.28;;;3.10;;
38252;SDS011;24785;52.372;20.672;2023-06-10T09:23:36;6.93;;;3.42;;
38252;SDS011;24785;52.372;20.672;2023-06-10T09:33:38;8.60;;;3.30;;
38252;SDS011;24785;52.372;20.672;2023-06-10T09:43:40;9.48;;;3.58;;
38252;SDS011;24785;52.372;20.672;2023-06-10T09:53:48;6.03;;;3.30;;
38252;SDS011;24785;52.372;20.672;2023-06-10T10:03:51;13.02;;;3.38;;
38252;SDS011;24785;52.372;20.672;2023-06-10T10:13:52;7.33;;;3.10;;
38252;SDS011;24785;52.372;20.672;2023-06-10T10:24:04;6.63;;;3.00;;
38252;SDS011;24785;52.372;20.672;2023-06-10T10:34:14;4.95;;;2.65;;
38252;SDS011;24785;52.372;20.672;2023-06-10T10:44:17;6.35;;;3.10;;
38252;SDS011;24785;52.372;20.672;2023-06-10T10:54:19;7.05;;;3.20;;
38252;SDS011;24785;52.372;20.672;2023-06-10T11:04:29;7.43;;;2.72;;
38252;SDS011;24785;52.372;20.672;2023-06-10T11:14:30;5.53;;;2.97;;
38252;SDS011;24785;52.372;20.672;2023-06-10T11:24:33;8.48;;;3.15;;
38252;SDS011;24785;52.372;20.672;2023-06-10T11:34:35;4.95;;;2.80;;
38252;SDS011;24785;52.372;20.672;2023-06-10T11:44:36;5.10;;;2.87;;
38252;SDS011;24785;52.372;20.672;2023-06-10T11:54:38;5.13;;;2.70;;
38252;SDS011;24785;52.372;20.672;2023-06-10T12:04:39;6.50;;;3.03;;
38252;SDS011;24785;52.372;20.672;2023-06-10T12:14:58;12.97;;;3.43;;
38252;SDS011;24785;52.372;20.672;2023-06-10T12:25:02;5.88;;;3.13;;
38252;SDS011;24785;52.372;20.672;2023-06-10T12:35:05;8.52;;;3.50;;
38252;SDS011;24785;52.372;20.672;2023-06-10T12:45:07;4.22;;;2.95;;
38252;SDS011;24785;52.372;20.672;2023-06-10T12:55:10;6.60;;;3.78;;
38252;SDS011;24785;52.372;20.672;2023-06-10T13:05:11;11.47;;;4.73;;
38252;SDS011;24785;52.372;20.672;2023-06-10T13:15:12;11.57;;;3.70;;
38252;SDS011;24785;52.372;20.672;2023-06-10T13:25:15;8.90;;;4.22;;
38252;SDS011;24785;52.372;20.672;2023-06-10T13:35:16;12.07;;;3.43;;
38252;SDS011;24785;52.372;20.672;2023-06-10T13:45:17;8.33;;;3.60;;
38252;SDS011;24785;52.372;20.672;2023-06-10T13:55:18;7.53;;;3.40;;
38252;SDS011;24785;52.372;20.672;2023-06-10T14:05:20;9.10;;;3.45;;
38252;SDS011;24785;52.372;20.672;2023-06-10T14:15:21;6.03;;;3.30;;
38252;SDS011;24785;52.372;20.672;2023-06-10T14:25:22;7.47;;;3.37;;
38252;SDS011;24785;52.372;20.672;2023-06-10T14:35:23;6.77;;;3.30;;
38252;SDS011;24785;52.372;20.672;2023-06-10T14:45:24;8.17;;;4.00;;
38252;SDS011;24785;52.372;20.672;2023-06-10T15:05:27;6.10;;;3.45;;
38252;SDS011;24785;52.372;20.672;2023-06-10T15:15:28;9.17;;;3.63;;
38252;SDS011;24785;52.372;20.672;2023-06-10T15:25:28;8.20;;;3.63;;
38252;SDS011;24785;52.372;20.672;2023-06-10T15:35:30;8.85;;;3.45;;
38252;SDS011;24785;52.372;20.672;2023-06-10T15:45:32;8.98;;;3.50;;
38252;SDS011;24785;52.372;20.672;2023-06-10T15:55:32;7.60;;;3.60;;
38252;SDS011;24785;52.372;20.672;2023-06-10T16:05:33;7.97;;;3.50;;
38252;SDS011;24785;52.372;20.672;2023-06-10T16:15:34;9.50;;;3.80;;
38252;SDS011;24785;52.372;20.672;2023-06-10T16:25:35;7.47;;;3.20;;
38252;SDS011;24785;52.372;20.672;2023-06-10T16:35:36;11.33;;;3.90;;
38252;SDS011;24785;52.372;20.672;2023-06-10T16:45:37;8.27;;;3.70;;
38252;SDS011;24785;52.372;20.672;2023-06-10T16:55:38;7.43;;;3.55;;
38252;SDS011;24785;52.372;20.672;2023-06-10T17:05:41;7.93;;;3.40;;
38252;SDS011;24785;52.372;20.672;2023-06-10T17:15:42;9.70;;;3.45;;
38252;SDS011;24785;52.372;20.672;2023-06-10T17:25:43;6.70;;;3.13;;
38252;SDS011;24785;52.372;20.672;2023-06-10T17:35:44;10.93;;;3.70;;
38252;SDS011;24785;52.372;20.672;2023-06-10T17:45:45;8.60;;;3.28;;
38252;SDS011;24785;52.372;20.672;2023-06-10T17:55:46;10.50;;;3.67;;
38252;SDS011;24785;52.372;20.672;2023-06-10T18:05:47;8.05;;;3.72;;
38252;SDS011;24785;52.372;20.672;2023-06-10T18:15:48;7.78;;;3.30;;
38252;SDS011;24785;52.372;20.672;2023-06-10T18:25:49;12.45;;;3.90;;
38252;SDS011;24785;52.372;20.672;2023-06-10T18:35:50;6.47;;;3.65;;
38252;SDS011;24785;52.372;20.672;2023-06-10T18:45:51;12.23;;;4.00;;
38252;SDS011;24785;52.372;20.672;2023-06-10T18:55:51;7.95;;;3.85;;
38252;SDS011;24785;52.372;20.672;2023-06-10T19:05:52;13.38;;;4.85;;
38252;SDS011;24785;52.372;20.672;2023-06-10T19:15:53;8.77;;;3.72;;
38252;SDS011;24785;52.372;20.672;2023-06-10T19:25:54;12.38;;;3.40;;
38252;SDS011;24785;52.372;20.672;2023-06-10T19:35:55;9.43;;;3.67;;
38252;SDS011;24785;52.372;20.672;2023-06-10T19:45:56;8.43;;;4.15;;
38252;SDS011;24785;52.372;20.672;2023-06-10T19:55:57;14.73;;;7.13;;
38252;SDS011;24785;52.372;20.672;2023-06-10T20:05:58;11.95;;;5.28;;
38252;SDS011;24785;52.372;20.672;2023-06-10T20:15:59;12.95;;;5.70;;
38252;SDS011;24785;52.372;20.672;2023-06-10T20:26:00;10.73;;;4.03;;
38252;SDS011;24785;52.372;20.672;2023-06-10T20:36:00;8.98;;;3.75;;
38252;SDS011;24785;52.372;20.672;2023-06-10T20:46:01;8.55;;;4.07;;
38252;SDS011;24785;52.372;20.672;2023-06-10T20:56:02;10.00;;;4.22;;
38252;SDS011;24785;52.372;20.672;2023-06-10T21:06:03;10.90;;;4.07;;
38252;SDS011;24785;52.372;20.672;2023-06-10T21:16:05;8.00;;;3.90;;
38252;SDS011;24785;52.372;20.672;2023-06-10T21:26:06;11.75;;;4.20;;
38252;SDS011;24785;52.372;20.672;2023-06-10T21:36:07;14.25;;;4.53;;
38252;SDS011;24785;52.372;20.672;2023-06-10T21:46:08;11.90;;;4.60;;
38252;SDS011;24785;52.372;20.672;2023-06-10T21:56:09;10.63;;;4.20;;
38252;SDS011;24785;52.372;20.672;2023-06-10T22:06:10;17.10;;;5.03;;
38252;SDS011;24785;52.372;20.672;2023-06-10T22:16:12;16.67;;;6.18;;
38252;SDS011;24785;52.372;20.672;2023-06-10T22:26:13;11.77;;;5.53;;
38252;SDS011;24785;52.372;20.672;2023-06-10T22:36:14;11.32;;;5.82;;
38252;SDS011;24785;52.372;20.672;2023-06-10T22:46:15;8.52;;;4.57;;
38252;SDS011;24785;52.372;20.672;2023-06-10T22:56:16;8.82;;;4.68;;
38252;SDS011;24785;52.372;20.672;2023-06-10T23:06:17;7.03;;;3.97;;
38252;SDS011;24785;52.372;20.672;2023-06-10T23:16:18;7.75;;;4.47;;
38252;SDS011;24785;52.372;20.672;2023-06-10T23:26:18;13.90;;;4.45;;
38252;SDS011;24785;52.372;20.672;2023-06-10T23:36:19;11.15;;;3.90;;
38252;SDS011;24785;52.372;20.672;2023-06-10T23:46:20;6.55;;;4.15;;
38252;SDS011;24785;52.372;20.672;2023-06-10T23:56:23;7.73;;;3.93;;
